Time;durP1;ratioP1;P1;durP2;ratioP2;P2;SDS_P1;SDS_P2;PMS_P1;PMS_P2;Temp;Humidity;BMP_temperature;BMP_pressure;BME280_temperature;BME280_humidity;BME280_pressure;Samples;Min_cycle;Max_cycle;Signal;HPM_P1;HPM_P2
2022/05/28 00:00:22;;;;;;;11.60;10.60;;;;;;;18.18;76.18;92688.25;5069876;28;20233;-80
2022/05/28 00:02:48;;;;;;;10.10;9.33;;;;;;;18.19;75.67;92689.03;5070840;28;20949;-80
2022/05/28 00:05:14;;;;;;;11.77;10.60;;;;;;;18.26;75.25;92689.28;5069910;28;20182;-80
2022/05/28 00:07:40;;;;;;;11.13;10.17;;;;;;;18.16;75.27;92687.03;5071513;28;20266;-80
2022/05/28 00:10:07;;;;;;;10.57;9.77;;;;;;;18.04;76.51;92684.34;5070065;28;20197;-79
2022/05/28 00:12:33;;;;;;;11.40;10.40;;;;;;;18.07;75.45;92665.97;5069264;28;20186;-80
2022/05/28 00:14:58;;;;;;;13.33;11.13;;;;;;;18.19;75.45;92679.25;5069878;28;20207;-80
2022/05/28 00:17:24;;;;;;;11.07;10.17;;;;;;;18.18;75.33;92674.28;5070433;28;20193;-81
2022/05/28 00:19:51;;;;;;;12.87;10.97;;;;;;;18.11;77.14;92677.44;5070143;28;20185;-80
2022/05/28 00:22:17;;;;;;;11.43;10.47;;;;;;;18.06;77.01;92659.13;5069452;28;20229;-80
2022/05/28 00:24:42;;;;;;;11.70;10.80;;;;;;;18.16;76.58;92671.19;5070285;28;20196;-80
2022/05/28 00:27:08;;;;;;;10.73;9.60;;;;;;;18.06;77.22;92669.69;5070041;28;20238;-81
2022/05/28 00:29:34;;;;;;;11.07;9.97;;;;;;;18.05;77.25;92662.09;5070404;28;20252;-80
2022/05/28 00:31:59;;;;;;;10.77;9.97;;;;;;;18.22;76.56;92660.09;5050409;28;20269;-80
2022/05/28 00:34:27;;;;;;;12.20;11.00;;;;;;;17.92;77.50;92650.69;5069498;28;20189;-80
2022/05/28 00:36:53;;;;;;;10.97;10.07;;;;;;;17.90;77.73;92646.84;5069261;28;20217;-80
2022/05/28 00:39:18;;;;;;;12.63;10.10;;;;;;;18.00;77.29;92643.78;5068314;28;20181;-80
2022/05/28 00:41:44;;;;;;;12.63;11.30;;;;;;;17.97;77.09;92633.88;5069044;28;20874;-80
2022/05/28 00:44:10;;;;;;;11.00;10.20;;;;;;;17.99;77.40;92636.97;5069544;28;20292;-78
2022/05/28 00:46:36;;;;;;;11.97;11.07;;;;;;;17.80;77.52;92618.16;5068245;28;20268;-80
2022/05/28 00:49:06;;;;;;;10.87;9.77;;;;;;;17.89;77.33;92634.72;5070021;28;20217;-80
2022/05/28 00:51:38;;;;;;;10.87;10.17;;;;;;;17.86;78.53;92628.22;5069033;28;20221;-79
2022/05/28 00:54:05;;;;;;;11.47;10.63;;;;;;;17.76;78.50;92623.28;5068585;28;20193;-80
2022/05/28 00:56:31;;;;;;;11.90;10.73;;;;;;;17.69;79.08;92609.06;5068132;28;20236;-80
2022/05/28 00:58:58;;;;;;;11.10;10.20;;;;;;;17.79;78.48;92616.63;5069105;28;20185;-80
2022/05/28 01:01:28;;;;;;;11.97;10.90;;;;;;;17.86;78.36;92611.56;5068614;28;20225;-80
2022/05/28 01:04:00;;;;;;;10.70;9.80;;;;;;;17.90;77.44;92607.22;5069141;28;20189;-80
2022/05/28 01:06:43;;;;;;;11.40;10.60;;;;;;;17.93;78.09;92603.94;5068361;28;20272;-79
2022/05/28 01:09:18;;;;;;;11.47;10.60;;;;;;;17.85;78.40;92610.81;5069191;28;20215;-78
2022/05/28 01:11:57;;;;;;;11.97;10.80;;;;;;;17.71;78.88;92636.72;5068110;28;20291;-80
2022/05/28 01:14:51;;;;;;;11.60;10.67;;;;;;;17.55;79.07;92644.41;5068105;28;20185;-80
2022/05/28 01:17:20;;;;;;;11.50;10.70;;;;;;;17.57;79.28;92660.69;5041658;28;20306;-81
2022/05/28 01:19:58;;;;;;;11.13;10.13;;;;;;;17.57;79.33;92679.19;5069385;28;20177;-80
2022/05/28 01:22:59;;;;;;;15.13;11.77;;;;;;;17.68;79.27;92679.59;5068529;28;21111;-79
2022/05/28 01:25:27;;;;;;;12.90;11.80;;;;;;;17.70;79.36;92690.59;5068250;28;20232;-79
2022/05/28 01:28:07;;;;;;;11.97;10.77;;;;;;;17.68;79.02;92699.94;5069274;28;20217;-80
2022/05/28 01:30:33;;;;;;;12.43;11.53;;;;;;;17.74;78.52;92725.06;5067834;28;20234;-79
2022/05/28 01:33:01;;;;;;;11.03;10.23;;;;;;;17.66;79.03;92731.16;5068776;28;20208;-81
2022/05/28 01:35:28;;;;;;;12.03;11.23;;;;;;;17.74;77.33;92710.00;5068635;28;20225;-81
2022/05/28 01:37:57;;;;;;;11.00;10.20;;;;;;;17.66;76.42;92704.75;5069110;28;20189;-80
2022/05/28 01:40:24;;;;;;;11.23;10.23;;;;;;;17.80;76.00;92729.06;5068627;28;20221;-81
2022/05/28 01:42:53;;;;;;;11.10;10.30;;;;;;;17.86;75.43;92727.78;5069190;28;20185;-80
2022/05/28 01:45:21;;;;;;;11.60;10.80;;;;;;;17.91;74.78;92722.34;5068689;28;20273;-81
2022/05/28 01:47:50;;;;;;;11.33;10.43;;;;;;;17.81;74.58;92697.06;5067781;28;20244;-81
2022/05/28 01:50:21;;;;;;;12.30;11.10;;;;;;;17.96;74.32;92717.63;5067421;28;20221;-81
2022/05/28 01:52:47;;;;;;;11.80;10.70;;;;;;;17.91;73.75;92688.00;5067836;28;20174;-80
2022/05/28 01:55:15;;;;;;;11.47;10.37;;;;;;;18.20;73.56;92698.50;5067626;28;20202;-80
2022/05/28 01:57:41;;;;;;;11.17;10.23;;;;;;;18.26;73.52;92689.28;5069508;28;20546;-81
2022/05/28 02:00:09;;;;;;;11.20;10.40;;;;;;;18.30;73.42;92684.91;5068371;28;20212;-81
2022/05/28 02:02:35;;;;;;;11.03;10.13;;;;;;;18.24;74.39;92673.00;5068458;28;20212;-80
2022/05/28 02:05:02;;;;;;;11.57;10.57;;;;;;;18.22;74.94;92688.41;5070587;28;20258;-80
2022/05/28 02:07:27;;;;;;;12.33;11.07;;;;;;;18.06;74.03;92668.91;5072471;28;20761;-80
2022/05/28 02:10:00;;;;;;;12.13;11.03;;;;;;;18.41;72.56;92701.97;5071317;28;20284;-79
2022/05/28 02:12:30;;;;;;;12.30;11.10;;;;;;;18.46;71.69;92704.41;5071788;28;21175;-81
2022/05/28 02:15:09;;;;;;;10.97;10.10;;;;;;;18.46;71.34;92697.22;5070925;28;20192;-80
2022/05/28 02:18:10;;;;;;;11.30;10.50;;;;;;;18.62;68.45;92695.56;5072287;28;20201;-82
2022/05/28 02:20:40;;;;;;;11.10;10.10;;;;;;;18.65;67.66;92691.47;5072505;28;20295;-80
2022/05/28 02:23:27;;;;;;;9.90;9.13;;;;;;;18.31;68.85;92689.09;5072523;28;20253;-80
2022/05/28 02:26:14;;;;;;;10.03;9.43;;;;;;;18.29;67.50;92699.25;5071000;28;20252;-79
2022/05/28 02:28:42;;;;;;;12.80;9.47;;;;;;;18.31;66.91;92703.09;5071251;28;20213;-79
2022/05/28 02:31:28;;;;;;;9.83;9.07;;;;;;;18.22;67.12;92680.47;5071519;28;20237;-79
2022/05/28 02:33:54;;;;;;;9.23;8.73;;;;;;;18.39;65.98;92704.16;5072166;28;20193;-80
2022/05/28 02:36:19;;;;;;;9.60;8.87;;;;;;;18.30;66.50;92711.34;5070310;28;20220;-79
2022/05/28 02:38:45;;;;;;;9.03;8.33;;;;;;;18.29;66.64;92715.84;5072097;28;20197;-80
2022/05/28 02:41:11;;;;;;;9.70;8.83;;;;;;;18.33;66.24;92716.00;5071233;28;20229;-80
2022/05/28 02:43:37;;;;;;;10.03;9.53;;;;;;;18.37;65.99;92712.38;5072919;28;20188;-80
2022/05/28 02:46:04;;;;;;;10.33;9.63;;;;;;;18.53;64.79;92705.44;5071056;28;20241;-80
2022/05/28 02:48:30;;;;;;;10.27;9.27;;;;;;;18.43;65.85;92710.31;5072025;28;20265;-79
2022/05/28 02:51:14;;;;;;;9.47;8.87;;;;;;;18.20;65.72;92674.72;5070983;28;20218;-79
2022/05/28 02:53:40;;;;;;;9.60;8.73;;;;;;;18.37;66.39;92672.72;5070928;28;20184;-78
2022/05/28 02:56:07;;;;;;;9.70;9.00;;;;;;;18.40;67.10;92689.81;5070101;28;20249;-79
2022/05/28 02:58:33;;;;;;;10.20;9.53;;;;;;;18.28;67.65;92684.44;5071307;28;20221;-79
2022/05/28 03:01:00;;;;;;;10.07;9.17;;;;;;;18.06;67.78;92666.28;5052925;28;20246;-79
2022/05/28 03:03:26;;;;;;;9.83;9.03;;;;;;;18.02;68.60;92692.59;5070172;28;20201;-79
2022/05/28 03:05:52;;;;;;;10.77;10.00;;;;;;;17.87;68.77;92676.53;5070327;28;20233;-79
2022/05/28 03:08:18;;;;;;;10.07;9.37;;;;;;;18.09;68.66;92705.25;5071929;28;20238;-79
2022/05/28 03:10:44;;;;;;;10.03;9.33;;;;;;;18.15;68.82;92698.72;5070419;28;20209;-79
2022/05/28 03:13:11;;;;;;;10.13;9.33;;;;;;;18.23;68.36;92700.50;5070647;28;20193;-80
2022/05/28 03:15:37;;;;;;;10.73;10.00;;;;;;;18.24;68.96;92696.78;5069446;28;20233;-78
2022/05/28 03:18:03;;;;;;;9.27;8.77;;;;;;;18.29;69.26;92693.94;5071108;28;20258;-80
2022/05/28 03:20:29;;;;;;;9.90;9.20;;;;;;;18.13;70.40;92700.91;5070616;28;20233;-79
2022/05/28 03:22:56;;;;;;;10.23;9.53;;;;;;;18.14;69.76;92695.28;5071225;28;20235;-78
2022/05/28 03:25:22;;;;;;;9.60;9.03;;;;;;;18.03;69.71;92695.97;5070971;28;20221;-80
2022/05/28 03:27:47;;;;;;;9.83;9.13;;;;;;;18.08;69.54;92695.81;5070059;28;20217;-79
2022/05/28 03:30:13;;;;;;;9.17;8.57;;;;;;;18.10;69.25;92698.91;5070712;28;20178;-79
2022/05/28 03:32:39;;;;;;;9.40;8.70;;;;;;;18.14;69.11;92697.94;5070265;28;20404;-79
2022/05/28 03:35:05;;;;;;;9.37;8.63;;;;;;;18.07;69.32;92681.06;5070741;28;20194;-79
2022/05/28 03:37:31;;;;;;;11.10;10.10;;;;;;;18.09;69.71;92686.78;5068177;28;20252;-79
2022/05/28 03:39:56;;;;;;;10.10;9.40;;;;;;;18.24;69.37;92684.31;5069247;28;20174;-77
2022/05/28 03:42:22;;;;;;;9.60;8.90;;;;;;;18.18;69.92;92692.78;5070398;28;20190;-86
2022/05/28 03:44:47;;;;;;;10.93;10.00;;;;;;;18.39;69.32;92697.00;5071099;28;20182;-85
2022/05/28 03:47:13;;;;;;;8.60;8.00;;;;;;;18.60;68.73;92689.06;5070128;28;20324;-86
2022/05/28 03:49:41;;;;;;;10.57;9.67;;;;;;;18.65;69.06;92684.31;5071300;28;20224;-85
2022/05/28 03:52:07;;;;;;;10.60;9.80;;;;;;;18.66;68.72;92671.88;5070160;28;20229;-84
2022/05/28 03:54:33;;;;;;;10.37;9.20;;;;;;;18.76;69.64;92682.03;5070489;28;20233;-86
2022/05/28 03:57:03;;;;;;;10.53;9.73;;;;;;;18.75;69.70;92659.34;5070578;28;20226;-86
2022/05/28 03:59:29;;;;;;;12.60;10.10;;;;;;;19.00;68.93;92672.28;5070736;28;20182;-85
2022/05/28 04:01:56;;;;;;;10.10;9.20;;;;;;;19.11;68.13;92665.47;5068704;28;20214;-85
2022/05/28 04:04:21;;;;;;;10.10;9.50;;;;;;;19.21;67.80;92653.66;5070650;28;20196;-86
2022/05/28 04:06:47;;;;;;;11.10;10.13;;;;;;;19.34;67.28;92657.13;5070059;28;20225;-85
2022/05/28 04:09:13;;;;;;;11.03;10.27;;;;;;;19.31;66.34;92645.34;5066510;28;20782;-86
2022/05/28 04:11:38;;;;;;;9.30;8.57;;;;;;;19.76;65.65;92656.56;5068469;28;20223;-85
2022/05/28 04:14:05;;;;;;;10.23;9.53;;;;;;;20.04;65.39;92668.00;5068904;28;20179;-86
2022/05/28 04:16:32;;;;;;;10.20;9.50;;;;;;;20.13;63.88;92659.91;5069171;28;20232;-85
2022/05/28 04:18:57;;;;;;;10.03;9.23;;;;;;;20.21;63.99;92651.88;5070267;28;20181;-84
2022/05/28 04:21:23;;;;;;;11.63;10.00;;;;;;;20.16;64.39;92632.78;5067882;28;20282;-87
2022/05/28 04:23:48;;;;;;;11.27;10.27;;;;;;;19.51;65.72;92601.31;5068695;28;20187;-86
2022/05/28 04:26:14;;;;;;;9.70;8.97;;;;;;;19.84;64.82;92650.38;5068822;28;20228;-87
2022/05/28 04:28:39;;;;;;;9.60;9.10;;;;;;;19.99;64.16;92664.81;5068878;28;20215;-88
2022/05/28 04:31:05;;;;;;;11.17;10.27;;;;;;;19.69;67.61;92677.53;5050581;28;20562;-89
2022/05/28 04:33:30;;;;;;;11.53;10.37;;;;;;;19.40;67.96;92719.34;5069006;28;21684;-78
2022/05/28 04:35:55;;;;;;;11.03;10.17;;;;;;;19.24;68.27;92742.25;5066617;28;20292;-79
2022/05/28 04:38:23;;;;;;;10.67;9.87;;;;;;;19.03;66.87;92735.16;5067418;28;20256;-87
2022/05/28 04:40:49;;;;;;;10.27;9.37;;;;;;;18.86;68.27;92708.09;5065182;28;20225;-84
2022/05/28 04:43:15;;;;;;;10.27;9.47;;;;;;;18.45;68.87;92639.41;5067932;28;20186;-84
2022/05/28 04:45:40;;;;;;;10.93;10.03;;;;;;;18.91;68.24;92650.44;5067718;28;20294;-82
2022/05/28 04:48:06;;;;;;;12.53;9.03;;;;;;;18.58;69.54;92633.84;5069372;28;20430;-81
2022/05/28 04:50:32;;;;;;;10.17;9.40;;;;;;;18.80;68.68;92633.44;5067525;28;20233;-79
2022/05/28 04:52:58;;;;;;;8.97;8.40;;;;;;;18.90;67.87;92633.03;5067237;28;20201;-80
2022/05/28 04:55:23;;;;;;;10.20;9.23;;;;;;;19.12;66.77;92658.31;5065890;28;20298;-72
2022/05/28 04:57:52;;;;;;;9.47;8.87;;;;;;;18.84;67.90;92636.19;5067222;28;20193;-84
2022/05/28 05:00:18;;;;;;;9.73;9.03;;;;;;;18.92;71.43;92656.50;5067507;28;21860;-82
2022/05/28 05:02:44;;;;;;;9.77;8.93;;;;;;;18.76;74.99;92629.13;5067302;28;20194;-90
2022/05/28 05:05:10;;;;;;;10.57;9.57;;;;;;;18.85;77.89;92680.06;5066256;28;20200;-80
2022/05/28 05:07:36;;;;;;;10.67;9.77;;;;;;;18.80;78.78;92688.97;5068091;28;20266;-83
2022/05/28 05:10:03;;;;;;;10.87;10.07;;;;;;;18.65;80.26;92709.97;5066381;28;20206;-82
2022/05/28 05:12:28;;;;;;;11.50;10.60;;;;;;;17.88;80.56;92728.25;5068030;28;20182;-80
2022/05/28 05:14:54;;;;;;;11.33;10.33;;;;;;;17.97;84.08;92729.75;5068223;28;20227;-75
2022/05/28 05:17:19;;;;;;;10.83;9.73;;;;;;;18.23;83.44;92732.22;5066140;28;20206;-77
2022/05/28 05:19:44;;;;;;;10.40;9.63;;;;;;;18.14;81.73;92728.88;5068307;28;20213;-75
2022/05/28 05:22:10;;;;;;;10.83;9.97;;;;;;;18.06;84.76;92700.63;5066553;28;20233;-75
2022/05/28 05:24:35;;;;;;;11.57;9.70;;;;;;;18.06;86.63;92717.25;5067750;28;20194;-76
2022/05/28 05:27:02;;;;;;;11.03;10.13;;;;;;;17.97;87.23;92703.34;5066235;28;20221;-76
2022/05/28 05:29:27;;;;;;;13.10;10.87;;;;;;;17.91;87.71;92715.19;5066291;28;20220;-78
2022/05/28 05:31:53;;;;;;;11.50;10.53;;;;;;;17.68;89.12;92697.31;5067565;28;20221;-81
2022/05/28 05:34:18;;;;;;;11.53;10.40;;;;;;;17.99;89.39;92697.72;5067789;28;20182;-80
2022/05/28 05:36:43;;;;;;;10.63;9.87;;;;;;;18.35;86.08;92703.22;5067105;28;20229;-81
2022/05/28 05:39:09;;;;;;;10.47;9.50;;;;;;;18.55;84.02;92713.03;5067927;28;20196;-86
2022/05/28 05:41:41;;;;;;;11.47;10.37;;;;;;;18.54;84.51;92664.66;5069951;28;20258;-83
2022/05/28 05:44:08;;;;;;;13.23;9.47;;;;;;;18.57;84.53;92655.28;5071695;28;20204;-83
2022/05/28 05:46:34;;;;;;;12.90;11.83;;;;;;;19.37;82.54;92702.25;5069155;28;20215;-78
2022/05/28 05:48:59;;;;;;;9.63;9.03;;;;;;;20.32;77.52;92715.81;5068973;28;20217;-78
2022/05/28 05:51:25;;;;;;;12.33;10.67;;;;;;;21.08;73.28;92689.88;5071090;28;20296;-79
2022/05/28 05:53:50;;;;;;;10.40;9.50;;;;;;;24.43;61.08;92709.56;5071032;28;20187;-78
2022/05/28 05:56:16;;;;;;;10.60;9.70;;;;;;;26.53;54.19;92726.97;5071742;28;20244;-78
2022/05/28 05:58:42;;;;;;;9.50;8.70;;;;;;;27.66;51.15;92717.47;5071912;28;20237;-80
2022/05/28 06:01:08;;;;;;;9.98;9.07;;;;;;;31.04;40.79;92735.56;5071477;28;20251;-76
2022/05/28 06:03:36;;;;;;;10.02;9.15;;;;;;;33.42;35.79;92744.69;5071000;28;20192;-75
2022/05/28 06:06:04;;;;;;;11.80;10.32;;;;;;;33.45;33.12;92729.56;5066947;28;20229;-75
2022/05/28 06:08:30;;;;;;;9.90;8.68;;;;;;;34.39;32.10;92734.06;5066141;28;20211;-75
2022/05/28 06:10:55;;;;;;;8.70;7.72;;;;;;;34.96;31.52;92732.22;5068081;28;20235;-76
2022/05/28 06:13:21;;;;;;;10.23;7.80;;;;;;;35.26;29.59;92737.25;5068872;28;20197;-77
2022/05/28 06:15:47;;;;;;;8.55;7.70;;;;;;;34.52;30.36;92724.84;5069886;28;20233;-77
2022/05/28 06:18:16;;;;;;;9.40;8.50;;;;;;;33.38;33.56;92732.38;5070557;28;20192;-75
2022/05/28 06:20:42;;;;;;;9.13;8.43;;;;;;;32.95;33.91;92727.03;5070574;28;20336;-75
2022/05/28 06:23:08;;;;;;;9.18;8.23;;;;;;;33.53;33.84;92706.53;5070621;28;20205;-73
2022/05/28 06:25:33;;;;;;;9.80;8.63;;;;;;;34.18;32.90;92719.06;5069284;28;20225;-75
2022/05/28 06:27:59;;;;;;;9.07;8.32;;;;;;;34.92;29.96;92728.09;5071311;28;21095;-75
2022/05/28 06:30:24;;;;;;;9.40;8.45;;;;;;;35.61;29.85;92730.81;5070037;28;20287;-75
2022/05/28 06:32:50;;;;;;;9.23;8.55;;;;;;;35.95;28.29;92710.44;5070989;28;20193;-74
2022/05/28 06:35:16;;;;;;;9.20;8.10;;;;;;;35.56;28.89;92712.34;5068974;28;20255;-74
2022/05/28 06:37:41;;;;;;;8.63;8.00;;;;;;;35.23;30.56;92719.09;5071207;28;20802;-74
2022/05/28 06:40:07;;;;;;;8.73;7.93;;;;;;;35.38;31.52;92717.53;5069931;28;20193;-76
2022/05/28 06:42:33;;;;;;;8.88;8.18;;;;;;;33.24;35.12;92705.56;5069479;28;20170;-74
2022/05/28 06:44:59;;;;;;;9.68;8.77;;;;;;;29.51;45.30;92682.56;5070039;28;20235;-74
2022/05/28 06:47:25;;;;;;;11.52;10.23;;;;;;;28.79;46.04;92679.81;5070781;28;20217;-75
2022/05/28 06:52:34;;;;;;;8.50;7.85;;;;;;;26.89;47.35;92660.19;5067677;28;20287;-76
2022/05/28 06:55:00;;;;;;;9.88;8.98;;;;;;;26.54;48.92;92652.72;5069495;28;20186;-73
2022/05/28 06:57:25;;;;;;;9.07;8.45;;;;;;;26.68;50.28;92640.19;5070582;28;20174;-76
2022/05/28 06:59:51;;;;;;;9.55;8.75;;;;;;;25.84;52.93;92639.69;5070539;28;20193;-77
2022/05/28 07:02:16;;;;;;;8.95;8.45;;;;;;;26.32;47.52;92641.16;5068629;28;20221;-74
2022/05/28 07:04:42;;;;;;;9.57;8.77;;;;;;;26.55;48.26;92622.13;5070320;28;20215;-80
2022/05/28 07:07:07;;;;;;;9.82;9.23;;;;;;;26.49;49.49;92629.00;5068364;28;20252;-71
2022/05/28 07:09:32;;;;;;;10.32;9.63;;;;;;;26.61;48.52;92599.19;5070621;28;20205;-74
2022/05/28 07:11:58;;;;;;;11.07;10.18;;;;;;;26.77;47.29;92598.91;5068945;28;20221;-76
2022/05/28 07:14:23;;;;;;;9.88;9.07;;;;;;;26.71;47.33;92598.47;5070195;28;20283;-76
2022/05/28 07:16:49;;;;;;;10.40;9.63;;;;;;;26.46;49.36;92605.66;5070111;28;20285;-75
2022/05/28 07:19:14;;;;;;;11.07;9.90;;;;;;;26.55;49.34;92606.81;5070937;28;20264;-78
2022/05/28 07:21:39;;;;;;;10.95;10.05;;;;;;;26.67;49.64;92603.06;5070084;28;20217;-74
2022/05/28 07:24:05;;;;;;;10.15;9.10;;;;;;;26.44;45.01;92594.53;5073048;28;20181;-74
2022/05/28 07:26:31;;;;;;;10.75;9.65;;;;;;;26.22;44.32;92599.03;5068499;28;20254;-76
2022/05/28 07:28:56;;;;;;;9.43;8.68;;;;;;;26.10;45.51;92602.03;5069621;28;20326;-75
2022/05/28 07:31:21;;;;;;;9.57;8.88;;;;;;;25.97;45.30;92583.94;5069495;28;20256;-77
2022/05/28 07:33:48;;;;;;;10.93;10.05;;;;;;;25.81;44.79;92613.66;5068727;28;20208;-75
2022/05/28 07:36:20;;;;;;;8.90;8.10;;;;;;;25.53;45.14;92585.94;5068416;28;20234;-83
2022/05/28 07:38:46;;;;;;;9.77;9.10;;;;;;;25.66;46.88;92604.03;5069755;28;20287;-76
2022/05/28 07:41:19;;;;;;;12.05;10.52;;;;;;;25.66;46.38;92593.31;5067575;28;20224;-75
2022/05/28 07:43:47;;;;;;;10.25;9.45;;;;;;;25.82;46.90;92596.47;5067400;28;20196;-73
2022/05/28 07:46:21;;;;;;;11.23;10.27;;;;;;;25.96;46.81;92591.19;5067147;28;20238;-74
2022/05/28 07:48:48;;;;;;;11.38;10.23;;;;;;;26.08;46.98;92603.53;5067480;28;20438;-77
2022/05/28 07:51:13;;;;;;;11.13;10.30;;;;;;;25.86;47.86;92602.63;5068416;28;20227;-73
2022/05/28 07:53:39;;;;;;;10.65;9.85;;;;;;;26.12;46.81;92602.41;5066839;28;20210;-74
2022/05/28 07:56:06;;;;;;;11.18;9.73;;;;;;;25.96;47.30;92601.91;5068136;28;20236;-74
2022/05/28 07:58:32;;;;;;;10.90;9.88;;;;;;;25.95;46.21;92612.97;5067543;28;20189;-74
2022/05/28 08:00:57;;;;;;;10.13;9.20;;;;;;;25.99;46.52;92601.22;5068012;28;20259;-74
2022/05/28 08:03:24;;;;;;;11.20;10.23;;;;;;;26.02;47.14;92592.44;5067666;28;21191;-74
2022/05/28 08:05:52;;;;;;;10.43;9.60;;;;;;;26.24;47.64;92596.00;5067188;28;20815;-74
2022/05/28 08:08:20;;;;;;;11.23;10.13;;;;;;;26.33;46.18;92599.88;5067918;28;20215;-74
2022/05/28 08:10:46;;;;;;;10.73;9.75;;;;;;;26.38;46.10;92583.41;5065780;28;20213;-74
2022/05/28 08:13:15;;;;;;;14.35;11.07;;;;;;;26.43;46.86;92596.44;5067514;28;20184;-74
2022/05/28 08:15:42;;;;;;;10.45;9.57;;;;;;;26.16;48.12;92595.19;5067245;28;20213;-74
2022/05/28 08:18:09;;;;;;;10.85;9.82;;;;;;;26.11;48.43;92592.09;5068112;28;20185;-74
2022/05/28 08:23:20;;;;;;;10.15;9.40;;;;;;;26.51;47.93;92584.63;5069721;28;20199;-74
2022/05/28 08:25:47;;;;;;;9.90;8.98;;;;;;;26.56;47.54;92581.59;5067820;28;20233;-74
2022/05/28 08:28:14;;;;;;;9.95;9.05;;;;;;;26.40;46.38;92583.81;5066690;28;20208;-74
2022/05/28 08:30:40;;;;;;;10.20;9.25;;;;;;;26.15;46.45;92572.22;5067705;28;20221;-74
2022/05/28 08:33:07;;;;;;;11.20;10.20;;;;;;;26.23;47.00;92595.22;5066184;28;20212;-74
2022/05/28 08:35:34;;;;;;;10.57;9.52;;;;;;;25.78;47.69;92576.19;5067378;28;20226;-74
2022/05/28 08:38:08;;;;;;;11.00;9.90;;;;;;;25.72;49.13;92596.41;5066833;28;20196;-73
2022/05/28 08:40:42;;;;;;;11.23;10.10;;;;;;;25.49;48.57;92585.94;5068037;28;20216;-73
2022/05/28 08:43:09;;;;;;;10.45;9.60;;;;;;;24.88;50.74;92577.72;5067821;28;20208;-74
2022/05/28 08:45:35;;;;;;;10.70;9.77;;;;;;;25.50;48.83;92589.34;5067635;28;20227;-74
2022/05/28 08:48:01;;;;;;;12.82;10.13;;;;;;;25.25;49.67;92581.13;5067815;28;20255;-74
2022/05/28 08:50:29;;;;;;;11.18;10.27;;;;;;;25.73;50.08;92593.34;5067287;28;20232;-73
2022/05/28 08:53:26;;;;;;;10.48;9.40;;;;;;;24.94;51.19;92578.94;5063571;28;20179;-74
2022/05/28 08:55:53;;;;;;;10.55;9.55;;;;;;;25.78;48.85;92586.88;5067028;28;20562;-74
2022/05/28 08:58:23;;;;;;;11.10;10.18;;;;;;;25.77;49.78;92590.72;5066999;28;20199;-74
2022/05/28 09:00:52;;;;;;;10.50;9.45;;;;;;;26.19;47.71;92583.72;5068390;28;20992;-74
2022/05/28 09:03:22;;;;;;;11.05;9.95;;;;;;;26.11;46.63;92579.47;5067825;28;20225;-74
2022/05/28 09:06:03;;;;;;;10.75;8.85;;;;;;;26.09;47.70;92581.75;5066606;28;20228;-75
2022/05/28 09:08:45;;;;;;;12.68;10.05;;;;;;;25.90;48.42;92582.00;5066574;28;20201;-75
2022/05/28 09:11:36;;;;;;;9.95;9.20;;;;;;;25.74;49.67;92578.09;5067705;28;20236;-75
2022/05/28 09:14:23;;;;;;;10.13;9.10;;;;;;;25.53;48.22;92575.25;5067068;28;20202;-75
2022/05/28 09:16:51;;;;;;;10.32;9.48;;;;;;;25.20;50.49;92571.53;5066133;28;20266;-74
2022/05/28 09:19:39;;;;;;;10.65;9.65;;;;;;;25.63;49.78;92575.34;5069300;28;20207;-75
2022/05/28 09:22:04;;;;;;;11.60;10.50;;;;;;;25.67;49.50;92570.78;5067375;28;20227;-75
2022/05/28 09:24:32;;;;;;;11.18;10.27;;;;;;;26.09;48.91;92563.03;5065741;28;20199;-75
2022/05/28 09:27:12;;;;;;;15.90;10.48;;;;;;;26.40;48.43;92565.06;5066085;28;20223;-75
2022/05/28 09:29:38;;;;;;;10.40;9.63;;;;;;;26.53;48.27;92560.16;5067028;28;20211;-75
2022/05/28 09:32:40;;;;;;;13.10;10.75;;;;;;;27.15;49.39;92566.03;5067764;28;20229;-75
2022/05/28 09:35:34;;;;;;;10.63;9.85;;;;;;;26.71;48.53;92550.25;5067732;28;20197;-75
2022/05/28 09:38:44;;;;;;;10.65;9.65;;;;;;;26.35;47.58;92544.00;5067432;28;20204;-75
2022/05/28 09:41:24;;;;;;;10.32;9.38;;;;;;;27.03;48.00;92534.25;4986703;28;20236;-75
2022/05/28 09:44:16;;;;;;;9.70;8.75;;;;;;;26.94;49.70;92533.84;4987706;28;20289;-74
2022/05/28 09:46:44;;;;;;;9.85;8.93;;;;;;;27.00;46.73;92529.66;5045672;28;20249;-75
2022/05/28 09:49:13;;;;;;;10.02;8.60;;;;;;;26.67;47.16;92518.13;5066999;28;20280;-75
2022/05/28 09:51:39;;;;;;;11.82;10.20;;;;;;;25.57;49.03;92531.38;5066729;28;20225;-75
2022/05/28 09:54:17;;;;;;;10.38;9.38;;;;;;;26.49;49.53;92535.28;5067814;28;20210;-74
2022/05/28 09:57:09;;;;;;;17.90;9.85;;;;;;;26.69;48.37;92520.44;5066741;28;20231;-74
2022/05/28 09:59:44;;;;;;;10.80;9.68;;;;;;;27.10;47.91;92521.59;5068168;28;20250;-75
2022/05/28 10:02:24;;;;;;;10.85;9.43;;;;;;;27.41;46.15;92517.44;5067113;28;20220;-74
2022/05/28 10:05:11;;;;;;;10.30;9.40;;;;;;;27.51;46.83;92517.41;5066668;28;20196;-75
2022/05/28 10:07:48;;;;;;;10.35;9.15;;;;;;;27.04;46.81;92515.09;5065703;28;20246;-73
2022/05/28 10:10:21;;;;;;;10.90;10.00;;;;;;;27.64;45.55;92526.59;5064769;28;20200;-75
2022/05/28 10:12:47;;;;;;;11.55;8.68;;;;;;;27.69;45.63;92512.78;5066633;28;20851;-75
2022/05/28 10:15:17;;;;;;;11.27;10.23;;;;;;;27.11;46.71;92498.25;5065919;28;20247;-75
2022/05/28 10:17:51;;;;;;;10.70;9.63;;;;;;;27.33;45.62;92507.84;5066081;28;20190;-74
2022/05/28 10:20:20;;;;;;;10.20;9.20;;;;;;;27.56;45.70;92514.34;5067711;28;20237;-75
2022/05/28 10:22:51;;;;;;;10.52;9.70;;;;;;;27.81;45.87;92508.94;5064998;28;20190;-75
2022/05/28 10:25:25;;;;;;;10.45;9.52;;;;;;;27.86;45.57;92506.59;5068377;28;20564;-73
2022/05/28 10:27:53;;;;;;;10.07;9.20;;;;;;;27.88;44.32;92506.25;5071178;28;20240;-75
2022/05/28 10:30:42;;;;;;;10.93;8.85;;;;;;;27.80;45.61;92496.69;5052413;28;20895;-75
2022/05/28 10:33:18;;;;;;;14.88;9.60;;;;;;;27.68;45.11;92494.38;5071369;28;20220;-75
2022/05/28 10:35:45;;;;;;;9.90;9.10;;;;;;;27.62;44.34;92491.34;5070557;28;20294;-74
2022/05/28 10:38:11;;;;;;;9.70;8.93;;;;;;;27.77;45.56;92484.00;5068864;28;20182;-75
2022/05/28 10:40:59;;;;;;;11.15;10.18;;;;;;;27.53;45.99;92479.47;5070274;28;20296;-73
2022/05/28 10:43:31;;;;;;;9.82;9.02;;;;;;;27.65;45.89;92487.13;5070110;28;20186;-75
2022/05/28 10:46:23;;;;;;;10.85;9.52;;;;;;;27.42;46.99;92482.19;5068604;28;20236;-74
2022/05/28 10:49:07;;;;;;;10.93;9.75;;;;;;;27.73;47.05;92483.25;5070714;28;20209;-75
2022/05/28 10:51:35;;;;;;;15.95;10.85;;;;;;;27.29;46.59;92473.00;5068754;28;20240;-75
2022/05/28 10:54:32;;;;;;;10.48;9.63;;;;;;;26.85;47.88;92480.63;5070745;28;20183;-75
2022/05/28 10:57:30;;;;;;;13.02;10.65;;;;;;;26.57;47.89;92481.34;5054630;28;20309;-75
2022/05/28 11:00:08;;;;;;;10.73;9.60;;;;;;;27.14;48.07;92484.09;5069479;28;20192;-75
2022/05/28 11:03:13;;;;;;;9.82;8.82;;;;;;;26.98;49.22;92478.34;5070415;28;20177;-75
2022/05/28 11:05:51;;;;;;;11.13;8.73;;;;;;;27.00;46.76;92476.03;5068320;28;20240;-75
2022/05/28 11:08:42;;;;;;;9.85;9.13;;;;;;;27.26;46.44;92479.13;5069464;28;20227;-76
2022/05/28 11:11:26;;;;;;;11.50;9.27;;;;;;;27.13;46.78;92467.22;5069257;28;20225;-74
2022/05/28 11:14:22;;;;;;;9.82;8.80;;;;;;;27.27;47.09;92463.81;5052111;28;20185;-75
2022/05/28 11:17:03;;;;;;;9.20;8.50;;;;;;;27.45;43.37;92461.88;5068473;28;20240;-75
2022/05/28 11:19:40;;;;;;;9.90;8.98;;;;;;;27.30;45.08;92457.69;5070235;28;20181;-75
2022/05/28 11:22:23;;;;;;;10.15;9.30;;;;;;;26.97;45.23;92455.38;5070034;28;20280;-76
2022/05/28 11:24:53;;;;;;;10.60;9.55;;;;;;;26.84;44.10;92443.50;5069797;28;20200;-75
2022/05/28 11:27:45;;;;;;;9.95;9.00;;;;;;;26.57;48.26;92443.06;5069286;28;20223;-75
2022/05/28 11:30:19;;;;;;;9.95;8.95;;;;;;;26.85;48.24;92428.97;5068179;28;20204;-75
2022/05/28 11:32:53;;;;;;;9.80;8.93;;;;;;;26.77;48.55;92434.31;5070051;28;20263;-75
2022/05/28 11:35:42;;;;;;;11.65;10.55;;;;;;;27.23;45.70;92436.97;5069553;28;20236;-75
2022/05/28 11:38:46;;;;;;;10.25;9.45;;;;;;;27.32;45.64;92431.22;5068685;28;20220;-75
2022/05/28 11:41:24;;;;;;;12.45;9.30;;;;;;;27.42;45.62;92433.91;5039484;28;20220;-75
2022/05/28 11:44:02;;;;;;;9.85;9.02;;;;;;;27.28;47.76;92433.16;5070245;28;20185;-75